Terminal Aerodrome Forecast
Issued by NWS

Home | Current Version | Previous Version | Text Only | Print | Product List | Glossary On
Versions: 1 2 3 4 5 6 7 8 9 10 11 12 13
467
FTUS46 KHNX 241120
TAFFAT
TAF
KFAT 241120Z 2412/2512 31009KT P6SM BKN110 OVC130
     FM242300 31009KT P6SM BKN050 BKN100
      TEMPO 2500/2503 P6SM -SHRA BKN050
     FM250300 30011KT P6SM BKN050
      TEMPO 2503/2506 P6SM -SHRA OVC050
     FM250900 31010KT P6SM OVC100=

USA.gov is the U.S. government's official web portal to all federal, state and local government web resources and services.